PWSweather.com
Personal Weather Stations
Station Observations
UWIDEPER1
Brown County, Depere, WI 54115

Brown CountyDepere, WI 54115

Lat: 44.44, Lon: -88.05

Elevation: 610

Station Type: Acurite 5in1

Latest ConditionsUpdated 7:00:00 AM CST Sunday, Nov 18, 2018
Currently Today's Max Today's Min Today's Average
Temperature 13.8°F-10.1°C 16.3°F-8.7°C 12.6°F-10.8°C 14.1°F-9.9°C
Dew Point 12.2°F-11.0°C 14.0°F-10.0°C 10.6°F-11.9°C 12.2°F-11.0°C
Winds 2.3 mph SSW3.7 kmh SSW 3.5 mph -5.6 kmh - - 0.5 mph 0.8 kmh
Wind Gusts 2.3 mph3.7 kmh 3.5 mph5.6 kmh - -
Humidity 93% 93% 90% 92%
Pressure 30.32 in1026.8 mb 30.38 in1028.8 mb 30.32 in1026.8 mb -
Hour Temp Dew Point Humidity Winds Wind Gusts Pressure Precip Precip Rate Daily Precip Total
07:00 AM 13.8°F-10.1°C 12.2°F-11.0°C 93% 2.3 mph SSW3.7 kmh SSW 2.3 mph3.7 kmh 30.32 in1026.8 mb - 0.00 in0.0 mm 0.00 in0.0 mm
06:55 AM 13.8°F-10.1°C 12.2°F-11.0°C 93% 2.3 mph S3.7 kmh S 2.3 mph3.7 kmh 30.32 in1026.8 mb - 0.00 in0.0 mm 0.00 in0.0 mm
06:50 AM 13.8°F-10.1°C 12.2°F-11.0°C 93% 2.3 mph SSW3.7 kmh SSW 2.3 mph3.7 kmh 30.33 in1027.1 mb - 0.00 in0.0 mm 0.00 in0.0 mm
06:45 AM 13.6°F-10.2°C 12.0°F-11.1°C 93% 1.2 mph SSW1.9 kmh SSW 2.3 mph3.7 kmh 30.33 in1027.1 mb - 0.00 in0.0 mm 0.00 in0.0 mm
06:40 AM 13.8°F-10.1°C 12.2°F-11.0°C 93% 1.2 mph SSW1.9 kmh SSW 2.3 mph3.7 kmh 30.32 in1026.8 mb - 0.00 in0.0 mm 0.00 in0.0 mm
06:35 AM 13.9°F-10.1°C 12.3°F-10.9°C 93% 2.3 mph SW3.7 kmh SW 1.2 mph1.9 kmh 30.32 in1026.8 mb - 0.00 in0.0 mm 0.00 in0.0 mm
06:30 AM 14.2°F-9.9°C 12.5°F-10.8°C 93% 1.2 mph SSW1.9 kmh SSW 2.3 mph3.7 kmh 30.32 in1026.8 mb - 0.00 in0.0 mm 0.00 in0.0 mm
06:25 AM 14.2°F-9.9°C 12.5°F-10.8°C 93% 1.2 mph SSW1.9 kmh SSW 1.2 mph1.9 kmh 30.32 in1026.8 mb - 0.00 in0.0 mm 0.00 in0.0 mm
06:20 AM 13.8°F-10.1°C 12.2°F-11.0°C 93% 1.2 mph SSW1.9 kmh SSW 2.3 mph3.7 kmh 30.32 in1026.8 mb - 0.00 in0.0 mm 0.00 in0.0 mm
06:15 AM 14.2°F-9.9°C 12.5°F-10.8°C 93% 2.3 mph SW3.7 kmh SW 2.3 mph3.7 kmh 30.32 in1026.8 mb - 0.00 in0.0 mm 0.00 in0.0 mm
06:10 AM 13.8°F-10.1°C 12.2°F-11.0°C 93% 2.3 mph SSW3.7 kmh SSW 3.5 mph5.6 kmh 30.32 in1026.8 mb - 0.00 in0.0 mm 0.00 in0.0 mm
06:00 AM 13.6°F-10.2°C 12.0°F-11.1°C 93% 1.2 mph SSW1.9 kmh SSW 2.3 mph3.7 kmh 30.32 in1026.8 mb - 0.00 in0.0 mm 0.00 in0.0 mm
05:55 AM 13.6°F-10.2°C 12.0°F-11.1°C 93% 1.2 mph SW1.9 kmh SW 2.3 mph3.7 kmh 30.33 in1027.1 mb - 0.00 in0.0 mm 0.00 in0.0 mm
05:50 AM 13.8°F-10.1°C 12.2°F-11.0°C 93% 1.2 mph S1.9 kmh S 2.3 mph3.7 kmh 30.33 in1027.1 mb - 0.00 in0.0 mm 0.00 in0.0 mm
05:45 AM 13.6°F-10.2°C 11.9°F-11.2°C 93% 1.2 mph SSW1.9 kmh SSW 3.5 mph5.6 kmh 30.32 in1026.8 mb - 0.00 in0.0 mm 0.00 in0.0 mm
05:40 AM 13.1°F-10.5°C 11.5°F-11.4°C 93% 1.2 mph SW1.9 kmh SW 1.2 mph1.9 kmh 30.32 in1026.8 mb - 0.00 in0.0 mm 0.00 in0.0 mm
05:35 AM 13.2°F-10.4°C 11.6°F-11.3°C 93% 1.2 mph WSW1.9 kmh WSW -- 30.32 in1026.8 mb - 0.00 in0.0 mm 0.00 in0.0 mm
05:30 AM 13.5°F-10.3°C 11.8°F-11.2°C 93% 1.2 mph SSW1.9 kmh SSW 2.3 mph3.7 kmh 30.32 in1026.8 mb - 0.00 in0.0 mm 0.00 in0.0 mm
05:25 AM 12.7°F-10.7°C 11.1°F-11.6°C 93% 3.5 mph SSW5.6 kmh SSW 3.5 mph5.6 kmh 30.32 in1026.8 mb - 0.00 in0.0 mm 0.00 in0.0 mm
05:20 AM 12.7°F-10.7°C 11.1°F-11.6°C 93% 1.2 mph S1.9 kmh S 3.5 mph5.6 kmh 30.32 in1026.8 mb - 0.00 in0.0 mm 0.00 in0.0 mm
05:15 AM 12.7°F-10.7°C 11.1°F-11.6°C 93% Calm Calm -- 30.32 in1026.8 mb - 0.00 in0.0 mm 0.00 in0.0 mm
05:10 AM 12.7°F-10.7°C 11.1°F-11.6°C 93% Calm Calm -- 30.32 in1026.8 mb - 0.00 in0.0 mm 0.00 in0.0 mm
05:00 AM 12.7°F-10.7°C 11.1°F-11.6°C 93% Calm Calm -- 30.32 in1026.8 mb - 0.00 in0.0 mm 0.00 in0.0 mm
04:55 AM 12.7°F-10.7°C 11.1°F-11.6°C 93% Calm Calm -- 30.33 in1027.1 mb - 0.00 in0.0 mm 0.00 in0.0 mm
04:50 AM 12.7°F-10.7°C 11.1°F-11.6°C 93% Calm Calm -- 30.32 in1026.8 mb - 0.00 in0.0 mm 0.00 in0.0 mm
04:45 AM 13.0°F-10.6°C 11.3°F-11.5°C 93% Calm Calm -- 30.33 in1027.1 mb - 0.00 in0.0 mm 0.00 in0.0 mm
04:40 AM 12.7°F-10.7°C 11.1°F-11.6°C 93% Calm Calm -- 30.33 in1027.1 mb - 0.00 in0.0 mm 0.00 in0.0 mm
04:35 AM 12.6°F-10.8°C 10.9°F-11.7°C 93% Calm Calm -- 30.33 in1027.1 mb - 0.00 in0.0 mm 0.00 in0.0 mm
04:30 AM 12.6°F-10.8°C 10.9°F-11.7°C 93% Calm Calm -- 30.33 in1027.1 mb - 0.00 in0.0 mm 0.00 in0.0 mm
04:25 AM 12.7°F-10.7°C 11.0°F-11.7°C 93% Calm Calm -- 30.33 in1027.1 mb - 0.00 in0.0 mm 0.00 in0.0 mm
04:20 AM 13.0°F-10.6°C 11.4°F-11.4°C 93% Calm Calm -- 30.33 in1027.1 mb - 0.00 in0.0 mm 0.00 in0.0 mm
04:15 AM 13.1°F-10.5°C 11.5°F-11.4°C 93% Calm Calm -- 30.33 in1027.1 mb - 0.00 in0.0 mm 0.00 in0.0 mm
04:10 AM 13.3°F-10.4°C 11.6°F-11.3°C 93% 1.2 mph SE1.9 kmh SE 1.2 mph1.9 kmh 30.33 in1027.1 mb - 0.00 in0.0 mm 0.00 in0.0 mm
04:00 AM 13.1°F-10.5°C 11.5°F-11.4°C 93% Calm Calm -- 30.34 in1027.4 mb - 0.00 in0.0 mm 0.00 in0.0 mm
03:55 AM 13.1°F-10.5°C 11.5°F-11.4°C 93% Calm Calm -- 30.34 in1027.4 mb - 0.00 in0.0 mm 0.00 in0.0 mm
03:50 AM 12.8°F-10.7°C 11.1°F-11.6°C 93% Calm Calm -- 30.34 in1027.4 mb - 0.00 in0.0 mm 0.00 in0.0 mm
03:45 AM 12.7°F-10.7°C 11.1°F-11.6°C 93% Calm Calm -- 30.34 in1027.4 mb - 0.00 in0.0 mm 0.00 in0.0 mm
03:40 AM 13.4°F-10.3°C 11.7°F-11.3°C 93% Calm Calm -- 30.34 in1027.4 mb - 0.00 in0.0 mm 0.00 in0.0 mm
03:35 AM 13.5°F-10.3°C 11.8°F-11.2°C 93% Calm Calm 1.2 mph1.9 kmh 30.34 in1027.4 mb - 0.00 in0.0 mm 0.00 in0.0 mm
03:30 AM 13.5°F-10.3°C 11.8°F-11.2°C 93% Calm Calm -- 30.34 in1027.4 mb - 0.00 in0.0 mm 0.00 in0.0 mm
03:25 AM 13.1°F-10.5°C 11.5°F-11.4°C 93% Calm Calm -- 30.34 in1027.4 mb - 0.00 in0.0 mm 0.00 in0.0 mm
03:20 AM 12.9°F-10.6°C 10.8°F-11.8°C 91% Calm Calm -- 30.34 in1027.4 mb - 0.00 in0.0 mm 0.00 in0.0 mm
03:15 AM 12.7°F-10.7°C 10.6°F-11.9°C 91% 1.2 mph SW1.9 kmh SW -- 30.34 in1027.4 mb - 0.00 in0.0 mm 0.00 in0.0 mm
03:10 AM 12.7°F-10.7°C 11.1°F-11.6°C 93% Calm Calm 1.2 mph1.9 kmh 30.34 in1027.4 mb - 0.00 in0.0 mm 0.00 in0.0 mm
03:00 AM 13.3°F-10.4°C 11.6°F-11.3°C 93% Calm Calm -- 30.34 in1027.4 mb - 0.00 in0.0 mm 0.00 in0.0 mm
02:55 AM 13.5°F-10.3°C 11.8°F-11.2°C 93% Calm Calm -- 30.34 in1027.4 mb - 0.00 in0.0 mm 0.00 in0.0 mm
02:50 AM 13.7°F-10.2°C 12.0°F-11.1°C 93% Calm Calm -- 30.34 in1027.4 mb - 0.00 in0.0 mm 0.00 in0.0 mm
02:45 AM 13.8°F-10.1°C 12.2°F-11.0°C 93% Calm Calm -- 30.34 in1027.4 mb - 0.00 in0.0 mm 0.00 in0.0 mm
02:40 AM 13.8°F-10.1°C 12.2°F-11.0°C 93% Calm Calm -- 30.34 in1027.4 mb - 0.00 in0.0 mm 0.00 in0.0 mm
02:35 AM 14.2°F-9.9°C 12.5°F-10.8°C 93% Calm Calm 1.2 mph1.9 kmh 30.35 in1027.8 mb - 0.00 in0.0 mm 0.00 in0.0 mm
02:30 AM 14.2°F-9.9°C 12.0°F-11.1°C 91% Calm Calm -- 30.34 in1027.4 mb - 0.00 in0.0 mm 0.00 in0.0 mm
02:25 AM 13.8°F-10.1°C 11.7°F-11.3°C 91% Calm Calm -- 30.34 in1027.4 mb - 0.00 in0.0 mm 0.00 in0.0 mm
02:20 AM 13.8°F-10.1°C 11.7°F-11.3°C 91% Calm Calm -- 30.34 in1027.4 mb - 0.00 in0.0 mm 0.00 in0.0 mm
02:15 AM 14.0°F-10.0°C 11.8°F-11.2°C 91% Calm Calm -- 30.35 in1027.8 mb - 0.00 in0.0 mm 0.00 in0.0 mm
02:10 AM 14.2°F-9.9°C 12.0°F-11.1°C 91% Calm Calm -- 30.34 in1027.4 mb - 0.00 in0.0 mm 0.00 in0.0 mm
02:00 AM 14.7°F-9.6°C 12.6°F-10.8°C 91% Calm Calm -- 30.35 in1027.8 mb - 0.00 in0.0 mm 0.00 in0.0 mm
01:55 AM 15.1°F-9.4°C 12.9°F-10.6°C 91% Calm Calm -- 30.36 in1028.1 mb - 0.00 in0.0 mm 0.00 in0.0 mm
01:50 AM 15.3°F-9.3°C 13.1°F-10.5°C 91% Calm Calm -- 30.35 in1027.8 mb - 0.00 in0.0 mm 0.00 in0.0 mm
01:45 AM 15.3°F-9.3°C 13.1°F-10.5°C 91% Calm Calm -- 30.35 in1027.8 mb - 0.00 in0.0 mm 0.00 in0.0 mm
01:40 AM 15.3°F-9.3°C 13.1°F-10.5°C 91% Calm Calm -- 30.36 in1028.1 mb - 0.00 in0.0 mm 0.00 in0.0 mm
01:35 AM 15.3°F-9.3°C 13.1°F-10.5°C 91% Calm Calm -- 30.35 in1027.8 mb - 0.00 in0.0 mm 0.00 in0.0 mm
01:30 AM 15.3°F-9.3°C 13.1°F-10.5°C 91% Calm Calm -- 30.36 in1028.1 mb - 0.00 in0.0 mm 0.00 in0.0 mm
01:25 AM 15.3°F-9.3°C 13.1°F-10.5°C 91% Calm Calm -- 30.36 in1028.1 mb - 0.00 in0.0 mm 0.00 in0.0 mm
01:20 AM 15.3°F-9.3°C 13.1°F-10.5°C 91% Calm Calm -- 30.36 in1028.1 mb - 0.00 in0.0 mm 0.00 in0.0 mm
01:15 AM 15.3°F-9.3°C 13.1°F-10.5°C 91% Calm Calm -- 30.35 in1027.8 mb - 0.00 in0.0 mm 0.00 in0.0 mm
01:10 AM 15.9°F-8.9°C 13.7°F-10.2°C 91% Calm Calm -- 30.36 in1028.1 mb - 0.00 in0.0 mm 0.00 in0.0 mm
01:00 AM 16.0°F-8.9°C 13.8°F-10.1°C 91% Calm Calm -- 30.36 in1028.1 mb - 0.00 in0.0 mm 0.00 in0.0 mm
12:55 AM 16.0°F-8.9°C 13.8°F-10.1°C 91% Calm Calm -- 30.36 in1028.1 mb - 0.00 in0.0 mm 0.00 in0.0 mm
12:50 AM 16.0°F-8.9°C 13.8°F-10.1°C 91% Calm Calm -- 30.36 in1028.1 mb - 0.00 in0.0 mm 0.00 in0.0 mm
12:45 AM 16.0°F-8.9°C 13.8°F-10.1°C 91% Calm Calm 2.3 mph3.7 kmh 30.36 in1028.1 mb - 0.00 in0.0 mm 0.00 in0.0 mm
12:40 AM 16.2°F-8.8°C 14.0°F-10.0°C 91% Calm Calm -- 30.37 in1028.4 mb - 0.00 in0.0 mm 0.00 in0.0 mm
12:35 AM 16.2°F-8.8°C 14.0°F-10.0°C 91% Calm Calm 1.2 mph1.9 kmh 30.36 in1028.1 mb - 0.00 in0.0 mm 0.00 in0.0 mm
12:30 AM 16.2°F-8.8°C 14.0°F-10.0°C 91% Calm Calm -- 30.36 in1028.1 mb - 0.00 in0.0 mm 0.00 in0.0 mm
12:25 AM 16.2°F-8.8°C 14.0°F-10.0°C 91% Calm Calm -- 30.37 in1028.4 mb - 0.00 in0.0 mm 0.00 in0.0 mm
12:20 AM 16.2°F-8.8°C 14.0°F-10.0°C 91% Calm Calm -- 30.37 in1028.4 mb - 0.00 in0.0 mm 0.00 in0.0 mm
12:15 AM 16.2°F-8.8°C 14.0°F-10.0°C 91% Calm Calm -- 30.37 in1028.4 mb - 0.00 in0.0 mm 0.00 in0.0 mm
12:10 AM 16.2°F-8.8°C 14.0°F-10.0°C 91% Calm Calm -- 30.38 in1028.8 mb - 0.00 in0.0 mm 0.00 in0.0 mm
12:00 AM 16.3°F-8.7°C 13.9°F-10.1°C 90% Calm Calm -- 30.37 in1028.4 mb - 0.00 in0.0 mm 0.00 in0.0 mm